Time;durP1;ratioP1;P1;durP2;ratioP2;P2;SDS_P1;SDS_P2;PMS_P1;PMS_P2;Temp;Humidity;BMP_temperature;BMP_pressure;BME280_temperature;BME280_humidity;BME280_pressure;Samples;Min_cycle;Max_cycle;Signal;HPM_P1;HPM_P2
2022/11/09 00:02:21;;;;;;;18.38;13.07;;;;;;;11.73;100.00;98865.59;5034617;28;20194;-55
2022/11/09 00:04:47;;;;;;;19.80;12.80;;;;;;;11.70;100.00;98881.34;5034759;28;20612;-55
2022/11/09 00:07:12;;;;;;;18.80;12.25;;;;;;;11.70;100.00;98880.50;5034702;28;20244;-56
2022/11/09 00:09:38;;;;;;;18.42;13.23;;;;;;;11.65;100.00;98873.03;5034491;28;20170;-55
2022/11/09 00:12:04;;;;;;;23.80;13.95;;;;;;;11.68;100.00;98882.38;5034471;28;20174;-55
2022/11/09 00:14:30;;;;;;;18.25;13.07;;;;;;;11.79;100.00;98877.31;5034722;28;20178;-56
2022/11/09 00:16:56;;;;;;;19.27;12.90;;;;;;;11.83;100.00;98886.53;5034500;28;20174;-55
2022/11/09 00:19:22;;;;;;;18.83;13.13;;;;;;;11.75;100.00;98888.81;5034272;28;20260;-55
2022/11/09 00:21:48;;;;;;;19.52;12.95;;;;;;;11.73;100.00;98881.13;5034273;28;20294;-55
2022/11/09 00:24:14;;;;;;;18.80;12.60;;;;;;;11.76;100.00;98885.28;5034313;28;20253;-55
2022/11/09 00:26:39;;;;;;;19.60;12.68;;;;;;;11.74;100.00;98885.38;5034177;28;20263;-55
2022/11/09 00:29:04;;;;;;;25.95;14.38;;;;;;;11.77;100.00;98894.72;5034144;28;20177;-55
2022/11/09 00:31:30;;;;;;;19.63;14.23;;;;;;;11.74;100.00;98892.34;5016437;28;20174;-55
2022/11/09 00:33:56;;;;;;;23.35;15.35;;;;;;;11.53;100.00;98878.16;5034126;28;20659;-55
2022/11/09 00:36:23;;;;;;;21.27;14.63;;;;;;;11.57;100.00;98888.25;5034147;28;20677;-55
2022/11/09 00:38:50;;;;;;;25.52;15.68;;;;;;;11.49;100.00;98884.47;5016711;28;20205;-55
2022/11/09 00:41:16;;;;;;;26.45;15.38;;;;;;;11.31;100.00;98877.88;5034249;28;20214;-55
2022/11/09 00:43:42;;;;;;;26.38;16.55;;;;;;;11.21;100.00;98897.53;5033954;28;20718;-55
2022/11/09 00:46:07;;;;;;;22.15;16.67;;;;;;;11.15;100.00;98892.75;5033955;28;20171;-55
2022/11/09 00:48:33;;;;;;;23.92;15.52;;;;;;;11.17;100.00;98890.88;5032829;28;20702;-55
2022/11/09 00:50:59;;;;;;;28.08;16.98;;;;;;;11.30;100.00;98883.97;5033869;28;20183;-55
2022/11/09 00:53:25;;;;;;;22.38;16.27;;;;;;;11.08;100.00;98886.28;5033971;28;20190;-55
2022/11/09 00:55:53;;;;;;;24.60;16.33;;;;;;;10.97;100.00;98880.94;5034299;28;20277;-55
2022/11/09 00:58:19;;;;;;;30.35;17.38;;;;;;;11.02;100.00;98884.91;5033953;28;20186;-55
2022/11/09 01:00:44;;;;;;;24.02;15.60;;;;;;;10.96;100.00;98881.84;5033652;28;20537;-55
2022/11/09 01:03:09;;;;;;;24.33;16.35;;;;;;;10.91;100.00;98873.56;5033680;28;20209;-55
2022/11/09 01:05:38;;;;;;;27.08;16.67;;;;;;;10.98;100.00;98873.06;5033524;28;20713;-55
2022/11/09 01:08:04;;;;;;;28.27;17.02;;;;;;;11.03;100.00;98877.97;5033798;28;20243;-55
2022/11/09 01:10:29;;;;;;;23.17;16.25;;;;;;;11.12;100.00;98872.19;5033991;28;20675;-55
2022/11/09 01:12:55;;;;;;;25.55;15.75;;;;;;;11.09;100.00;98883.59;5033463;28;20848;-55
2022/11/09 01:15:20;;;;;;;24.83;14.57;;;;;;;10.98;100.00;98875.66;5033349;28;20179;-55
2022/11/09 01:17:46;;;;;;;26.20;16.25;;;;;;;10.94;100.00;98870.78;5033334;28;20254;-55
2022/11/09 01:20:12;;;;;;;27.98;16.67;;;;;;;11.00;100.00;98873.81;5033558;28;20174;-55
2022/11/09 01:22:38;;;;;;;26.13;17.77;;;;;;;11.03;100.00;98872.81;5015653;28;20202;-55
2022/11/09 01:25:03;;;;;;;25.10;17.17;;;;;;;11.01;100.00;98875.47;5033199;28;20181;-56
2022/11/09 01:27:29;;;;;;;28.63;16.92;;;;;;;11.00;100.00;98873.81;5033684;28;20182;-55
2022/11/09 01:29:54;;;;;;;24.10;16.33;;;;;;;11.20;100.00;98872.56;5033089;28;20166;-55
2022/11/09 01:32:19;;;;;;;23.15;13.63;;;;;;;10.97;100.00;98871.41;5033098;28;20636;-55
2022/11/09 01:34:45;;;;;;;22.08;14.48;;;;;;;10.88;100.00;98861.66;5033259;28;20170;-55
2022/11/09 01:37:10;;;;;;;22.55;15.60;;;;;;;10.86;100.00;98873.84;5033184;28;20666;-56
2022/11/09 01:39:36;;;;;;;27.48;15.85;;;;;;;10.68;100.00;98874.16;5015484;28;20252;-55
2022/11/09 01:42:01;;;;;;;24.70;17.38;;;;;;;10.76;100.00;98871.91;5033059;28;20594;-55
2022/11/09 01:44:27;;;;;;;26.45;17.35;;;;;;;10.62;100.00;98871.94;5032616;28;20733;-55
2022/11/09 01:46:57;;;;;;;31.60;18.83;;;;;;;10.44;100.00;98873.06;5032804;28;20178;-55
2022/11/09 01:49:40;;;;;;;30.02;18.98;;;;;;;10.57;100.00;98874.78;5032701;28;20182;-55
2022/11/09 01:52:27;;;;;;;35.45;18.48;;;;;;;10.62;100.00;98861.59;5033258;28;20184;-55
2022/11/09 01:54:59;;;;;;;27.70;19.42;;;;;;;10.65;100.00;98867.41;5032971;28;20170;-55
2022/11/09 01:57:32;;;;;;;26.08;18.42;;;;;;;10.49;100.00;98860.66;5032828;28;20249;-55
2022/11/09 02:00:04;;;;;;;30.58;18.67;;;;;;;10.66;100.00;98861.31;5032290;28;20167;-55
2022/11/09 02:02:29;;;;;;;28.58;18.92;;;;;;;10.65;100.00;98869.16;5032352;28;20236;-55
2022/11/09 02:05:05;;;;;;;30.30;19.45;;;;;;;10.62;100.00;98871.94;5032489;28;20182;-55
2022/11/09 02:07:31;;;;;;;26.30;18.48;;;;;;;10.51;100.00;98872.59;5032684;28;20216;-55
2022/11/09 02:10:09;;;;;;;29.42;20.30;;;;;;;10.30;100.00;98875.66;5032404;28;20174;-55
2022/11/09 02:12:35;;;;;;;30.50;19.83;;;;;;;10.22;100.00;98877.88;5032720;28;20635;-55
2022/11/09 02:15:07;;;;;;;36.53;20.52;;;;;;;10.21;100.00;98878.78;5032584;28;20182;-55
2022/11/09 02:17:33;;;;;;;32.08;20.05;;;;;;;10.15;100.00;98877.38;5032648;28;20238;-55
2022/11/09 02:19:59;;;;;;;31.90;20.17;;;;;;;10.32;100.00;98878.97;5014561;28;20194;-55
2022/11/09 02:22:25;;;;;;;35.33;22.98;;;;;;;10.13;100.00;98881.81;5032069;28;20576;-55
2022/11/09 02:24:51;;;;;;;32.72;21.23;;;;;;;10.08;100.00;98872.66;5032392;28;20170;-55
2022/11/09 02:27:17;;;;;;;31.33;22.00;;;;;;;10.19;100.00;98883.22;5032109;28;20189;-55
2022/11/09 02:29:46;;;;;;;36.50;21.98;;;;;;;10.14;100.00;98885.22;5031894;28;20201;-55
2022/11/09 02:32:18;;;;;;;37.30;21.83;;;;;;;10.04;100.00;98882.34;5032285;28;20297;-55
2022/11/09 02:34:43;;;;;;;35.42;21.63;;;;;;;10.10;100.00;98884.59;5033078;28;20585;-55
2022/11/09 02:37:09;;;;;;;33.65;22.15;;;;;;;10.00;100.00;98887.78;5031983;28;20261;-55
2022/11/09 02:39:34;;;;;;;35.03;21.55;;;;;;;9.86;100.00;98880.00;5031986;28;20224;-55
2022/11/09 02:42:13;;;;;;;35.85;21.75;;;;;;;9.89;100.00;98887.56;5031725;28;20205;-55
2022/11/09 02:44:44;;;;;;;35.80;20.48;;;;;;;9.97;100.00;98887.94;5031873;28;20721;-55
2022/11/09 02:47:09;;;;;;;38.65;21.75;;;;;;;9.80;100.00;98844.19;5031885;28;20170;-55
2022/11/09 02:49:35;;;;;;;33.22;20.80;;;;;;;10.12;100.00;98897.44;5031943;28;20174;-55
2022/11/09 02:52:01;;;;;;;33.58;21.55;;;;;;;10.18;100.00;98897.06;5031756;28;20206;-55
2022/11/09 02:54:26;;;;;;;35.47;23.13;;;;;;;10.04;100.00;98895.28;5031950;28;20182;-55
2022/11/09 02:56:52;;;;;;;37.47;24.30;;;;;;;10.06;100.00;98887.44;5031829;28;20244;-55
2022/11/09 02:59:17;;;;;;;39.63;23.73;;;;;;;10.14;100.00;98903.31;5031986;28;20179;-55
2022/11/09 03:01:42;;;;;;;37.95;23.58;;;;;;;10.22;100.00;98903.72;5031829;28;20691;-55
2022/11/09 03:04:08;;;;;;;36.28;24.17;;;;;;;10.09;100.00;98900.22;5031685;28;20617;-55
2022/11/09 03:06:33;;;;;;;44.55;25.38;;;;;;;10.11;100.00;98909.50;5031822;28;20174;-55
2022/11/09 03:09:09;;;;;;;39.85;25.08;;;;;;;9.93;100.00;98905.38;5031496;28;20178;-55
2022/11/09 03:11:35;;;;;;;38.90;24.60;;;;;;;9.98;100.00;98897.38;5033300;28;20257;-55
2022/11/09 03:14:02;;;;;;;39.03;23.63;;;;;;;9.92;100.00;98887.41;5035858;28;20235;-55
2022/11/09 03:16:28;;;;;;;33.78;21.48;;;;;;;9.93;100.00;98896.81;5035634;28;20629;-55
2022/11/09 03:18:53;;;;;;;30.33;20.08;;;;;;;9.95;100.00;98903.56;5035597;28;20194;-55
2022/11/09 03:21:20;;;;;;;37.70;24.08;;;;;;;9.73;100.00;98905.72;5035471;28;20586;-55
2022/11/09 03:23:46;;;;;;;32.47;22.25;;;;;;;9.60;100.00;98903.91;5035481;28;20182;-55
2022/11/09 03:26:12;;;;;;;41.38;23.17;;;;;;;9.59;100.00;98902.25;5035507;28;20182;-55
2022/11/09 03:28:38;;;;;;;36.70;20.70;;;;;;;9.64;100.00;98900.25;5035417;28;20257;-55
2022/11/09 03:31:04;;;;;;;33.65;22.80;;;;;;;9.71;100.00;98901.56;5035368;28;20179;-55
2022/11/09 03:33:29;;;;;;;34.25;22.60;;;;;;;9.79;100.00;98910.53;5035341;28;20186;-55
2022/11/09 03:35:55;;;;;;;31.00;19.95;;;;;;;9.73;100.00;98907.44;5035459;28;20244;-55
2022/11/09 03:38:20;;;;;;;19.10;13.70;;;;;;;9.79;100.00;98902.78;5035294;28;20210;-55
2022/11/09 03:40:45;;;;;;;21.63;13.93;;;;;;;9.88;100.00;98909.16;5035282;28;20257;-55
2022/11/09 03:43:11;;;;;;;30.73;20.15;;;;;;;9.86;100.00;98916.19;5035031;28;20653;-57
2022/11/09 03:45:36;;;;;;;25.75;17.83;;;;;;;9.77;100.00;98906.38;5035176;28;20209;-55
2022/11/09 03:48:02;;;;;;;20.85;14.25;;;;;;;9.80;100.00;98917.34;5035098;28;20170;-55
2022/11/09 03:50:29;;;;;;;17.25;13.38;;;;;;;9.79;100.00;98910.53;5035091;28;20178;-55
2022/11/09 03:52:56;;;;;;;19.38;13.38;;;;;;;9.87;100.00;98907.50;5035303;28;20530;-55
2022/11/09 03:55:22;;;;;;;25.50;15.48;;;;;;;9.98;100.00;98911.13;5035172;28;20183;-55
2022/11/09 03:57:47;;;;;;;30.75;20.25;;;;;;;9.91;100.00;98909.81;5034873;28;20636;-55
2022/11/09 04:00:15;;;;;;;35.53;22.25;;;;;;;9.81;100.00;98903.50;5035080;28;20171;-55
2022/11/09 04:02:41;;;;;;;44.47;24.27;;;;;;;9.70;100.00;98905.06;5034700;28;20202;-55
2022/11/09 04:05:07;;;;;;;42.60;26.70;;;;;;;9.72;100.00;98900.63;5034802;28;20185;-55
2022/11/09 04:07:33;;;;;;;50.88;27.73;;;;;;;9.64;100.00;98898.47;5034633;28;20670;-55
2022/11/09 04:09:58;;;;;;;43.90;26.48;;;;;;;9.64;100.00;98902.81;5034694;28;20178;-55
2022/11/09 04:12:23;;;;;;;21.58;13.77;;;;;;;9.80;100.00;98901.03;5034619;28;20201;-55
2022/11/09 04:14:49;;;;;;;15.70;11.73;;;;;;;9.80;100.00;98904.44;5035122;28;20186;-55
2022/11/09 04:17:14;;;;;;;17.98;12.25;;;;;;;9.89;100.00;98905.66;5034649;28;20181;-55
2022/11/09 04:19:40;;;;;;;15.25;11.05;;;;;;;9.99;100.00;98906.78;5034578;28;20177;-55
2022/11/09 04:22:05;;;;;;;14.07;11.70;;;;;;;10.03;100.00;98898.78;5034428;28;20198;-55
2022/11/09 04:24:31;;;;;;;19.15;11.63;;;;;;;10.03;100.00;98892.75;5034397;28;20221;-55
2022/11/09 04:26:56;;;;;;;19.90;12.52;;;;;;;10.08;100.00;98890.75;5034605;28;20726;-55
2022/11/09 04:29:22;;;;;;;18.08;12.55;;;;;;;10.20;100.00;98905.56;5034556;28;20235;-55
2022/11/09 04:31:48;;;;;;;17.85;11.57;;;;;;;10.24;100.00;98907.03;5034489;28;20573;-55
2022/11/09 04:34:14;;;;;;;17.73;12.50;;;;;;;10.20;100.00;98913.31;5034250;28;20198;-55
2022/11/09 04:36:40;;;;;;;17.20;13.05;;;;;;;10.10;100.00;98899.28;5016442;28;20194;-55
2022/11/09 04:39:05;;;;;;;17.70;12.45;;;;;;;10.17;100.00;98906.56;5034665;28;20179;-55
2022/11/09 04:41:31;;;;;;;16.73;12.70;;;;;;;10.09;100.00;98902.78;5033987;28;20240;-55
2022/11/09 04:43:56;;;;;;;18.98;13.43;;;;;;;10.13;100.00;98900.84;5034298;28;20240;-55
2022/11/09 04:46:22;;;;;;;17.02;11.77;;;;;;;10.15;100.00;98907.59;5034007;28;20178;-55
2022/11/09 04:48:47;;;;;;;18.05;11.90;;;;;;;10.08;100.00;98895.94;5034017;28;20241;-55
2022/11/09 04:51:13;;;;;;;23.77;14.93;;;;;;;9.99;100.00;98907.59;5033937;28;20171;-55
2022/11/09 04:53:38;;;;;;;22.08;13.65;;;;;;;9.95;100.00;98903.56;5033801;28;20178;-55
2022/11/09 04:56:05;;;;;;;20.30;13.80;;;;;;;9.97;100.00;98903.44;5033746;28;20568;-55
2022/11/09 04:58:31;;;;;;;20.70;13.30;;;;;;;9.89;100.00;98916.84;5034022;28;20261;-55
2022/11/09 05:01:08;;;;;;;17.65;11.43;;;;;;;9.91;100.00;98911.56;5033945;28;20638;-55
2022/11/09 05:03:34;;;;;;;18.27;12.45;;;;;;;9.98;100.00;98920.66;5033856;28;20163;-55
2022/11/09 05:05:59;;;;;;;16.05;11.95;;;;;;;9.99;100.00;98922.31;5033643;28;20177;-55
2022/11/09 05:08:25;;;;;;;19.50;13.90;;;;;;;9.84;100.00;98920.59;5033595;28;20178;-55
2022/11/09 05:10:54;;;;;;;22.58;13.60;;;;;;;9.86;100.00;98922.16;5033481;28;20197;-55
2022/11/09 05:13:20;;;;;;;20.42;13.85;;;;;;;9.89;100.00;98926.34;5033616;28;20656;-55
2022/11/09 05:15:45;;;;;;;21.52;14.07;;;;;;;9.93;100.00;98918.31;5033439;28;20208;-55
2022/11/09 05:18:10;;;;;;;25.63;16.75;;;;;;;9.84;100.00;98921.44;5033359;28;20175;-55
2022/11/09 05:20:36;;;;;;;26.95;17.67;;;;;;;9.83;100.00;98918.94;5033289;28;20206;-55
2022/11/09 05:25:46;;;;;;;21.85;14.85;;;;;;;9.98;100.00;98931.00;5033360;28;20682;-55
2022/11/09 05:28:12;;;;;;;23.67;13.27;;;;;;;10.00;100.00;98929.13;5033213;28;20187;-55
2022/11/09 05:30:37;;;;;;;17.40;12.77;;;;;;;9.93;100.00;98922.66;5033383;28;20175;-55
2022/11/09 05:33:03;;;;;;;19.98;12.63;;;;;;;10.09;100.00;98939.00;5033119;28;20178;-55
2022/11/09 05:35:28;;;;;;;16.98;12.02;;;;;;;10.17;100.00;98952.28;5032530;28;20178;-55
2022/11/09 05:37:54;;;;;;;17.80;12.05;;;;;;;10.24;100.00;98943.25;5032980;28;20166;-55
2022/11/09 05:40:19;;;;;;;17.88;12.50;;;;;;;10.20;100.00;98932.25;5033000;28;20265;-55
2022/11/09 05:42:45;;;;;;;16.30;11.68;;;;;;;10.41;100.00;98945.69;5032874;28;20194;-55
2022/11/09 05:45:16;;;;;;;22.02;12.63;;;;;;;10.41;100.00;98953.44;5014990;28;20230;-55
2022/11/09 05:47:43;;;;;;;18.23;12.00;;;;;;;10.49;100.00;98946.88;5032872;28;20163;-55
2022/11/09 05:50:11;;;;;;;17.10;11.32;;;;;;;10.49;100.00;98944.31;5032710;28;20174;-55
2022/11/09 05:52:37;;;;;;;16.85;11.38;;;;;;;10.45;100.00;98936.81;5032924;28;20281;-55
2022/11/09 05:55:03;;;;;;;14.95;11.15;;;;;;;10.59;100.00;98960.09;5032680;28;20171;-55
2022/11/09 05:57:28;;;;;;;19.90;12.23;;;;;;;10.67;100.00;98957.88;5032569;28;20170;-55
2022/11/09 05:59:54;;;;;;;16.45;10.90;;;;;;;10.71;100.00;98961.94;5032649;28;20170;-55
2022/11/09 06:02:20;;;;;;;16.13;11.40;;;;;;;10.74;100.00;98962.59;5032476;28;20190;-56
2022/11/09 06:04:45;;;;;;;16.77;12.13;;;;;;;10.86;100.00;98968.81;5032828;28;20175;-56
2022/11/09 06:07:11;;;;;;;18.67;11.60;;;;;;;10.83;100.00;98971.56;5032439;28;20542;-56
2022/11/09 06:09:36;;;;;;;14.48;11.23;;;;;;;10.90;100.00;98965.94;5032453;28;20257;-56
2022/11/09 06:12:02;;;;;;;15.80;11.40;;;;;;;11.05;100.00;98971.94;5032500;28;20261;-56
2022/11/09 06:14:27;;;;;;;17.20;11.57;;;;;;;11.02;100.00;98960.00;5014663;28;20186;-55
2022/11/09 06:16:53;;;;;;;15.82;10.90;;;;;;;11.22;100.00;98976.91;5032694;28;20254;-57
2022/11/09 06:19:18;;;;;;;15.07;10.60;;;;;;;11.27;100.00;98980.03;5032258;28;20175;-56
2022/11/09 06:21:44;;;;;;;17.77;11.43;;;;;;;11.34;100.00;98973.53;5032414;28;20205;-56
2022/11/09 06:24:09;;;;;;;12.80;10.27;;;;;;;11.41;100.00;98978.25;5032224;28;20265;-55
2022/11/09 06:26:35;;;;;;;15.57;10.05;;;;;;;11.44;100.00;98977.22;5032137;28;20253;-55
2022/11/09 06:29:00;;;;;;;13.77;10.18;;;;;;;11.46;100.00;98985.72;5032088;28;20190;-56
2022/11/09 06:31:27;;;;;;;18.55;11.60;;;;;;;11.50;100.00;98982.03;5031985;28;20186;-56
2022/11/09 06:33:52;;;;;;;18.60;11.82;;;;;;;11.53;100.00;98981.81;5032103;28;20316;-59
2022/11/09 06:36:18;;;;;;;19.48;11.23;;;;;;;11.61;100.00;98990.00;5031945;28;20699;-56
2022/11/09 06:38:43;;;;;;;16.25;10.45;;;;;;;11.72;100.00;98997.91;5032015;28;20729;-56
2022/11/09 06:41:09;;;;;;;14.43;10.95;;;;;;;11.61;100.00;98984.81;5031930;28;20167;-56
2022/11/09 06:43:35;;;;;;;15.10;10.50;;;;;;;11.68;100.00;98988.66;5031696;28;20190;-56
2022/11/09 06:46:04;;;;;;;13.55;10.32;;;;;;;11.74;100.00;98991.69;5031175;28;20233;-56
2022/11/09 06:48:29;;;;;;;17.13;11.00;;;;;;;11.76;100.00;98986.41;5032031;28;20206;-56
2022/11/09 06:50:59;;;;;;;18.90;11.00;;;;;;;11.78;100.00;98987.16;5031850;28;20301;-56
2022/11/09 06:53:26;;;;;;;16.63;11.05;;;;;;;11.80;100.00;98990.47;5031828;28;20195;-56
2022/11/09 06:55:52;;;;;;;20.15;11.90;;;;;;;11.88;100.00;98977.84;5032001;28;20178;-57
2022/11/09 06:58:18;;;;;;;18.58;11.20;;;;;;;11.99;100.00;98988.34;5031726;28;20181;-56
2022/11/09 07:00:44;;;;;;;19.13;12.10;;;;;;;12.06;100.00;98984.41;5031976;28;20174;-55
2022/11/09 07:03:17;;;;;;;18.10;12.30;;;;;;;12.05;100.00;98978.41;5031877;28;20256;-54
2022/11/09 07:05:43;;;;;;;18.20;11.45;;;;;;;12.12;100.00;98977.06;5031809;28;20197;-55
2022/11/09 07:08:09;;;;;;;15.32;11.45;;;;;;;12.24;100.00;98972.81;5031595;28;20174;-55
2022/11/09 07:10:35;;;;;;;13.65;9.57;;;;;;;12.35;100.00;98972.94;5031622;28;20257;-55
2022/11/09 07:13:02;;;;;;;22.48;10.85;;;;;;;12.42;100.00;98969.03;5031852;28;20170;-56
2022/11/09 07:15:27;;;;;;;16.42;10.25;;;;;;;12.44;100.00;98972.34;5031849;28;20234;-55
2022/11/09 07:17:56;;;;;;;13.00;10.25;;;;;;;12.56;100.00;98974.97;5031633;28;20178;-55
2022/11/09 07:20:22;;;;;;;15.15;9.63;;;;;;;12.62;100.00;98977.13;5031813;28;20178;-55
2022/11/09 07:22:51;;;;;;;13.73;10.25;;;;;;;12.67;100.00;98980.22;5031738;28;20551;-56
2022/11/09 07:25:16;;;;;;;15.02;10.63;;;;;;;12.66;100.00;98977.75;5031784;28;20213;-56
2022/11/09 07:27:42;;;;;;;12.85;10.30;;;;;;;12.78;100.00;98982.13;5031519;28;20583;-56
2022/11/09 07:30:08;;;;;;;12.25;9.43;;;;;;;12.80;100.00;98980.22;5031638;28;20178;-56
2022/11/09 07:32:35;;;;;;;15.15;10.32;;;;;;;12.88;100.00;98985.72;5031612;28;20249;-55
2022/11/09 07:35:00;;;;;;;12.98;10.13;;;;;;;12.86;100.00;98985.84;5031888;28;20170;-56
2022/11/09 07:37:26;;;;;;;13.65;9.52;;;;;;;12.91;100.00;98988.97;5031725;28;20167;-56
2022/11/09 07:39:51;;;;;;;14.13;9.10;;;;;;;13.03;99.18;98988.16;5013730;28;20175;-55
2022/11/09 07:42:16;;;;;;;12.88;10.05;;;;;;;13.06;98.91;98987.94;5031461;28;20198;-56
2022/11/09 07:44:42;;;;;;;12.20;9.75;;;;;;;13.07;99.18;98994.78;5031512;28;20339;-56
2022/11/09 07:47:09;;;;;;;16.35;10.48;;;;;;;13.11;99.85;98985.00;5031337;28;20609;-56
2022/11/09 07:49:35;;;;;;;15.40;10.98;;;;;;;13.13;98.25;98996.94;5031554;28;20175;-56
2022/11/09 07:52:00;;;;;;;14.98;9.90;;;;;;;13.20;98.02;98994.75;5031515;28;20671;-56
2022/11/09 07:54:26;;;;;;;14.75;9.35;;;;;;;13.24;98.20;98991.84;5031175;28;20174;-56
2022/11/09 07:56:52;;;;;;;17.45;10.45;;;;;;;13.23;98.18;98991.94;5032095;28;20232;-56
2022/11/09 07:59:17;;;;;;;13.82;9.50;;;;;;;13.23;97.42;98990.19;5034768;28;20705;-56
2022/11/09 08:01:42;;;;;;;14.68;10.18;;;;;;;13.33;97.48;98990.38;5034828;28;20202;-56
2022/11/09 08:04:09;;;;;;;12.02;9.63;;;;;;;13.43;97.49;98988.78;5034808;28;20268;-56
2022/11/09 08:06:34;;;;;;;18.13;9.98;;;;;;;13.58;96.77;98995.47;5034697;28;20180;-56
2022/11/09 08:08:59;;;;;;;15.70;9.88;;;;;;;13.63;96.66;98978.63;5034854;28;20166;-56
2022/11/09 08:11:26;;;;;;;15.73;9.23;;;;;;;13.79;96.23;98994.78;5034757;28;20224;-56
2022/11/09 08:13:51;;;;;;;19.90;12.85;;;;;;;13.85;97.05;98990.91;5016946;28;20170;-55
2022/11/09 08:16:17;;;;;;;25.83;13.75;;;;;;;13.87;98.22;98992.47;5034535;28;20831;-56
2022/11/09 08:18:43;;;;;;;28.25;16.33;;;;;;;13.97;99.33;98990.00;5034553;28;20246;-56
2022/11/09 08:21:08;;;;;;;19.55;13.95;;;;;;;14.00;99.63;98985.41;5034481;28;20175;-56
2022/11/09 08:23:34;;;;;;;18.40;12.85;;;;;;;14.16;98.14;98985.09;5034531;28;20174;-55
2022/11/09 08:26:04;;;;;;;18.38;12.43;;;;;;;14.20;97.28;98983.97;5034493;28;20703;-56
2022/11/09 08:28:30;;;;;;;25.90;15.38;;;;;;;14.38;100.00;98993.03;5034531;28;20297;-57
2022/11/09 08:30:58;;;;;;;22.45;16.02;;;;;;;14.48;100.00;98989.63;5034371;28;20202;-57
2022/11/09 08:33:26;;;;;;;24.80;17.15;;;;;;;14.60;100.00;98993.09;5016635;28;20182;-56
2022/11/09 08:35:52;;;;;;;25.65;16.65;;;;;;;14.71;100.00;98998.31;5034338;28;20197;-56
2022/11/09 08:38:17;;;;;;;30.00;17.30;;;;;;;14.79;100.00;98988.13;5034245;28;20174;-56
2022/11/09 08:40:43;;;;;;;19.90;15.75;;;;;;;14.72;100.00;98997.38;5034094;28;20265;-56
2022/11/09 08:43:10;;;;;;;24.40;17.05;;;;;;;14.65;100.00;98996.19;5034161;28;20237;-56
2022/11/09 08:45:37;;;;;;;24.92;17.85;;;;;;;14.72;100.00;98992.16;5034303;28;20187;-56
2022/11/09 08:48:04;;;;;;;28.63;17.25;;;;;;;14.58;100.00;98984.56;5034060;28;20664;-56
2022/11/09 08:50:30;;;;;;;25.27;16.58;;;;;;;14.68;100.00;98995.94;5034256;28;20179;-56
2022/11/09 08:52:56;;;;;;;24.60;17.40;;;;;;;14.64;100.00;98992.72;5033927;28;20201;-56
2022/11/09 08:55:22;;;;;;;24.83;17.13;;;;;;;14.58;100.00;98990.59;5033980;28;20586;-56
2022/11/09 08:57:47;;;;;;;23.90;18.00;;;;;;;14.73;100.00;98999.00;5033848;28;20184;-56
2022/11/09 09:00:13;;;;;;;23.35;15.43;;;;;;;14.89;100.00;98999.50;5033829;28;20265;-56
2022/11/09 09:02:39;;;;;;;21.70;16.55;;;;;;;15.03;100.00;98999.28;5034122;28;20356;-56
2022/11/09 09:05:05;;;;;;;27.63;17.67;;;;;;;15.16;100.00;99002.63;5033805;28;20644;-56
2022/11/09 09:07:30;;;;;;;24.88;15.60;;;;;;;15.16;98.98;98992.19;5033592;28;20170;-56
2022/11/09 09:09:56;;;;;;;25.27;17.38;;;;;;;15.25;98.93;99001.88;5032813;28;20166;-56
2022/11/09 09:12:21;;;;;;;24.20;17.10;;;;;;;15.26;98.77;99000.94;5033640;28;20171;-56
2022/11/09 09:14:46;;;;;;;24.20;16.35;;;;;;;15.34;98.41;99002.03;5033613;28;20825;-56
2022/11/09 09:17:12;;;;;;;26.88;15.98;;;;;;;15.42;98.53;99001.44;5033768;28;20166;-56
2022/11/09 09:19:37;;;;;;;29.33;16.63;;;;;;;15.51;98.37;98998.09;5033489;28;20178;-56
2022/11/09 09:22:03;;;;;;;24.38;16.90;;;;;;;15.60;98.77;98997.34;5033667;28;20206;-56
2022/11/09 09:24:28;;;;;;;25.77;16.65;;;;;;;15.68;98.04;98995.00;5033382;28;20174;-56
2022/11/09 09:26:53;;;;;;;27.23;17.95;;;;;;;15.51;99.67;98985.88;5033323;28;20174;-56
2022/11/09 09:29:19;;;;;;;32.67;19.83;;;;;;;15.57;100.00;98981.97;5033125;28;20223;-56
2022/11/09 09:31:44;;;;;;;26.20;18.95;;;;;;;15.53;100.00;98988.38;5033228;28;20640;-56
2022/11/09 09:34:11;;;;;;;26.27;18.35;;;;;;;15.53;100.00;98988.38;5033249;28;20598;-56
2022/11/09 09:36:37;;;;;;;33.17;20.15;;;;;;;15.35;100.00;98982.84;5033348;28;20186;-56
2022/11/09 09:39:03;;;;;;;34.90;20.80;;;;;;;15.43;100.00;98984.81;5033327;28;20175;-56
2022/11/09 09:41:37;;;;;;;36.85;22.75;;;;;;;15.51;100.00;98974.63;5033233;28;20198;-56
2022/11/09 09:44:12;;;;;;;34.38;21.88;;;;;;;15.63;100.00;98974.47;5032684;28;20733;-56
2022/11/09 09:46:45;;;;;;;33.97;21.40;;;;;;;15.73;99.84;98958.91;5033042;28;20200;-56
2022/11/09 09:49:22;;;;;;;35.28;21.98;;;;;;;15.83;99.63;98960.66;5032846;28;20194;-56
2022/11/09 09:52:20;;;;;;;30.83;21.08;;;;;;;15.93;98.64;98963.34;5033158;28;20249;-56
2022/11/09 09:54:57;;;;;;;29.05;19.95;;;;;;;15.95;98.78;98951.84;5033063;28;20256;-56
2022/11/09 09:57:25;;;;;;;34.47;21.67;;;;;;;16.11;97.45;98951.41;5033183;28;20646;-56
2022/11/09 09:59:53;;;;;;;31.95;21.42;;;;;;;16.19;95.89;98949.81;5032712;28;20255;-56
2022/11/09 10:02:26;;;;;;;34.08;21.60;;;;;;;16.23;96.29;98945.16;5032579;28;20198;-56
2022/11/09 10:04:58;;;;;;;34.28;22.65;;;;;;;16.34;95.67;98945.09;5032599;28;20171;-56
2022/11/09 10:07:34;;;;;;;33.13;21.25;;;;;;;16.35;93.37;98946.75;5032522;28;20324;-56
2022/11/09 10:09:59;;;;;;;33.47;22.08;;;;;;;16.29;94.30;98944.66;5033071;28;20162;-56
2022/11/09 10:12:57;;;;;;;32.88;21.95;;;;;;;16.24;93.75;98941.59;5032927;28;20174;-56
2022/11/09 10:15:41;;;;;;;37.00;21.90;;;;;;;16.26;93.84;98944.91;5032467;28;20217;-56
2022/11/09 10:18:28;;;;;;;31.60;20.67;;;;;;;16.28;94.26;98938.59;5032767;28;20177;-56
2022/11/09 10:21:21;;;;;;;35.08;22.52;;;;;;;16.39;94.45;98937.75;5032425;28;20169;-56
2022/11/09 10:23:59;;;;;;;31.00;21.10;;;;;;;16.49;94.02;98938.63;5032263;28;20166;-56
2022/11/09 10:26:34;;;;;;;33.15;21.98;;;;;;;16.61;93.01;98935.00;5032234;28;20176;-56
2022/11/09 10:29:01;;;;;;;32.95;21.50;;;;;;;16.74;92.23;98928.56;5032285;28;20689;-56
2022/11/09 10:31:31;;;;;;;34.53;21.13;;;;;;;16.81;91.12;98931.50;5032127;28;20187;-56
2022/11/09 10:34:02;;;;;;;36.03;22.58;;;;;;;16.79;91.03;98928.19;5032361;28;20228;-56
2022/11/09 10:36:40;;;;;;;27.42;21.00;;;;;;;16.84;90.43;98931.25;5032228;28;20557;-56
2022/11/09 10:39:11;;;;;;;28.58;19.85;;;;;;;16.95;90.40;98918.91;5032114;28;20231;-56
2022/11/09 10:41:44;;;;;;;30.08;21.13;;;;;;;17.11;89.53;98923.63;5031985;28;20194;-56
2022/11/09 10:44:17;;;;;;;31.17;21.63;;;;;;;17.23;89.60;98917.31;5031640;28;20295;-56
2022/11/09 10:47:12;;;;;;;31.65;20.77;;;;;;;17.38;88.36;98922.06;5032107;28;20176;-56
2022/11/09 10:49:38;;;;;;;30.30;20.70;;;;;;;17.51;87.95;98922.66;5014277;28;20603;-56
2022/11/09 10:52:24;;;;;;;29.38;20.70;;;;;;;17.62;86.94;98913.84;5032122;28;20188;-56
2022/11/09 10:54:50;;;;;;;30.33;20.58;;;;;;;17.72;86.48;98915.50;5031751;28;20570;-56
2022/11/09 10:57:18;;;;;;;33.50;21.60;;;;;;;17.79;86.16;98908.75;5031854;28;20174;-56
2022/11/09 10:59:59;;;;;;;30.73;22.83;;;;;;;17.87;84.54;98908.91;5031972;28;20591;-56
2022/11/09 11:02:25;;;;;;;37.90;22.60;;;;;;;17.95;84.65;98913.47;5032173;28;20197;-56
2022/11/09 11:05:14;;;;;;;29.23;20.63;;;;;;;17.97;84.36;98911.50;5031890;28;20186;-56
2022/11/09 11:07:39;;;;;;;35.83;21.13;;;;;;;18.03;84.30;98905.72;5031757;28;20216;-56
2022/11/09 11:10:13;;;;;;;34.53;21.85;;;;;;;18.08;83.95;98911.38;5031885;28;20267;-56
2022/11/09 11:12:39;;;;;;;28.08;20.23;;;;;;;18.10;84.13;98901.56;5031782;28;20245;-56
2022/11/09 11:15:39;;;;;;;50.05;35.33;;;;;;;18.05;83.68;98898.53;5032046;28;20185;-56
2022/11/09 11:18:15;;;;;;;32.17;19.80;;;;;;;18.01;83.40;98890.13;4989056;28;20194;-57